Time;durP1;ratioP1;P1;durP2;ratioP2;P2;SDS_P1;SDS_P2;PMS_P1;PMS_P2;Temp;Humidity;BMP_temperature;BMP_pressure;BME280_temperature;BME280_humidity;BME280_pressure;Samples;Min_cycle;Max_cycle;Signal;HPM_P1;HPM_P2
2023/09/21 00:01:45;;;;;;;7.28;2.25;;;17.10;49.60;;;;;;5073658;28;20044;-44
2023/09/21 00:04:11;;;;;;;8.02;2.50;;;17.10;46.60;;;;;;5072920;28;20098;-44
2023/09/21 00:06:36;;;;;;;6.10;2.20;;;17.10;45.40;;;;;;5073224;28;20503;-46
2023/09/21 00:09:03;;;;;;;7.07;2.38;;;17.20;45.60;;;;;;5073205;28;20078;-46
2023/09/21 00:11:30;;;;;;;5.30;2.17;;;17.20;41.50;;;;;;5072221;28;20091;-46
2023/09/21 00:13:57;;;;;;;6.35;2.72;;;17.30;37.60;;;;;;5073561;28;20116;-46
2023/09/21 00:16:26;;;;;;;5.82;2.10;;;17.40;33.80;;;;;;5073181;28;20044;-47
2023/09/21 00:18:52;;;;;;;7.32;2.90;;;17.40;32.30;;;;;;5073038;28;20044;-46
2023/09/21 00:21:18;;;;;;;5.50;2.15;;;17.40;31.50;;;;;;5073052;28;20082;-45
2023/09/21 00:23:46;;;;;;;5.50;2.17;;;17.40;29.60;;;;;;5073359;28;20037;-48
2023/09/21 00:26:12;;;;;;;6.43;2.33;;;17.50;27.90;;;;;;5073120;28;20048;-45
2023/09/21 00:28:38;;;;;;;6.50;2.15;;;17.60;26.70;;;;;;5073231;28;20145;-47
2023/09/21 00:31:04;;;;;;;7.25;2.00;;;17.60;24.80;;;;;;5071813;28;20071;-50
2023/09/21 00:33:35;;;;;;;4.53;1.88;;;17.60;24.00;;;;;;5072835;28;20137;-47
2023/09/21 00:36:04;;;;;;;8.85;2.25;;;17.60;24.40;;;;;;5072752;28;20040;-60
2023/09/21 00:38:31;;;;;;;7.72;2.15;;;17.60;23.80;;;;;;5072683;28;20041;-59
2023/09/21 00:40:58;;;;;;;7.07;2.00;;;17.60;22.00;;;;;;5072992;28;20052;-60
2023/09/21 00:43:25;;;;;;;4.82;2.03;;;17.70;21.20;;;;;;5072710;28;20093;-60
2023/09/21 00:45:57;;;;;;;5.40;2.00;;;17.70;20.80;;;;;;5072632;28;20040;-61
2023/09/21 00:48:26;;;;;;;6.43;2.10;;;17.70;19.70;;;;;;5071284;28;20040;-61
2023/09/21 00:50:54;;;;;;;5.68;2.30;;;17.70;18.20;;;;;;5072651;28;20524;-60
2023/09/21 00:53:22;;;;;;;5.55;1.88;;;17.80;17.10;;;;;;5072781;28;20098;-60
2023/09/21 00:55:55;;;;;;;8.18;2.20;;;17.80;17.90;;;;;;5072497;28;20072;-60
2023/09/21 00:58:26;;;;;;;6.45;2.20;;;17.80;15.20;;;;;;5072478;28;20562;-61
2023/09/21 01:00:54;;;;;;;7.53;2.10;;;17.80;14.20;;;;;;5072460;28;20433;-60
2023/09/21 01:03:22;;;;;;;7.50;2.13;;;17.90;12.20;;;;;;5072626;28;20393;-60
2023/09/21 01:05:50;;;;;;;7.20;2.20;;;17.90;11.70;;;;;;5072243;28;20550;-60
2023/09/21 01:08:23;;;;;;;5.93;2.22;;;17.90;11.30;;;;;;5072207;28;20105;-60
2023/09/21 01:10:49;;;;;;;6.05;2.10;;;18.00;9.20;;;;;;5072255;28;20052;-60
2023/09/21 01:13:16;;;;;;;5.88;2.15;;;18.10;7.40;;;;;;5072324;28;20150;-60
2023/09/21 01:15:58;;;;;;;5.00;1.90;;;18.00;8.30;;;;;;5071645;28;20125;-60
2023/09/21 01:18:24;;;;;;;5.63;2.20;;;18.00;8.60;;;;;;5072136;28;20082;-60
2023/09/21 01:20:54;;;;;;;5.85;2.63;;;18.00;9.40;;;;;;5072264;28;20040;-60
2023/09/21 01:23:24;;;;;;;8.45;2.30;;;18.00;7.80;;;;;;5072105;28;20052;-61
2023/09/21 01:25:50;;;;;;;5.78;2.03;;;18.00;7.80;;;;;;5072101;28;20115;-60
2023/09/21 01:28:22;;;;;;;6.90;2.55;;;18.00;7.80;;;;;;5072243;28;20048;-60
2023/09/21 01:30:51;;;;;;;7.45;2.75;;;18.00;7.50;;;;;;5072052;28;20064;-61
2023/09/21 01:33:17;;;;;;;6.07;2.42;;;18.00;7.50;;;;;;5072174;28;20114;-60
2023/09/21 01:35:44;;;;;;;6.70;2.22;;;18.00;7.00;;;;;;5071985;28;20526;-60
2023/09/21 01:38:12;;;;;;;6.85;2.08;;;18.00;7.10;;;;;;5071991;28;20115;-60
2023/09/21 01:40:39;;;;;;;7.93;2.25;;;18.00;5.70;;;;;;5072104;28;20037;-59
2023/09/21 01:43:07;;;;;;;6.55;2.00;;;18.10;2.10;;;;;;5054265;28;20115;-61
2023/09/21 01:45:33;;;;;;;4.78;1.92;;;18.20;1.40;;;;;;5072171;28;20158;-60
2023/09/21 01:48:00;;;;;;;7.45;2.10;;;18.10;2.80;;;;;;5072103;28;20040;-60
2023/09/21 01:50:29;;;;;;;6.53;2.10;;;18.10;1.60;;;;;;5072052;28;20055;-60
2023/09/21 01:52:56;;;;;;;6.75;2.22;;;18.20;1.00;;;;;;5071765;28;20045;-60
2023/09/21 01:55:21;;;;;;;5.40;2.20;;;18.20;1.10;;;;;;5070551;28;20052;-60
2023/09/21 01:57:47;;;;;;;6.30;1.98;;;18.20;1.00;;;;;;5071708;28;20044;-60
2023/09/21 02:00:25;;;;;;;5.20;2.17;;;18.20;1.00;;;;;;5072022;28;20039;-60
2023/09/21 02:02:54;;;;;;;6.40;1.80;;;18.20;1.00;;;;;;5071863;28;20056;-60
2023/09/21 02:05:20;;;;;;;6.28;2.05;;;18.20;1.00;;;;;;5071744;28;20048;-60
2023/09/21 02:07:47;;;;;;;6.22;2.15;;;18.20;1.00;;;;;;5071680;28;20052;-60
2023/09/21 02:10:15;;;;;;;8.75;2.30;;;18.10;1.70;;;;;;5071769;28;20049;-60
2023/09/21 02:12:51;;;;;;;6.22;2.50;;;18.10;1.00;;;;;;5071734;28;20146;-60
2023/09/21 02:15:18;;;;;;;5.88;1.88;;;18.10;1.00;;;;;;5071555;28;20116;-59
2023/09/21 02:17:45;;;;;;;5.93;2.25;;;18.10;1.00;;;;;;5071810;28;20139;-60
2023/09/21 02:20:15;;;;;;;5.88;2.08;;;18.10;1.00;;;;;;5071429;28;20106;-60
2023/09/21 02:22:45;;;;;;;6.55;2.20;;;18.10;1.00;;;;;;5071712;28;20048;-60
2023/09/21 02:25:11;;;;;;;6.15;2.50;;;18.10;1.20;;;;;;5071513;28;20116;-60
2023/09/21 02:27:40;;;;;;;7.30;2.10;;;18.00;1.60;;;;;;5073130;28;20112;-60
2023/09/21 02:30:13;;;;;;;7.93;3.13;;;18.00;2.80;;;;;;5075189;28;20507;-60
2023/09/21 02:32:41;;;;;;;5.97;2.28;;;18.00;2.10;;;;;;5073681;28;20052;-60
2023/09/21 02:35:15;;;;;;;5.60;2.25;;;18.00;2.50;;;;;;5073721;28;20036;-60
2023/09/21 02:37:48;;;;;;;6.03;2.33;;;17.90;2.00;;;;;;5075313;28;20047;-60
2023/09/21 02:40:14;;;;;;;6.60;2.90;;;18.00;2.30;;;;;;5075013;28;20040;-61
2023/09/21 02:42:44;;;;;;;6.35;2.38;;;18.00;1.00;;;;;;5074873;28;20051;-60
2023/09/21 02:45:13;;;;;;;8.25;2.38;;;18.00;1.00;;;;;;5075145;28;20365;-60
2023/09/21 02:47:41;;;;;;;6.82;2.50;;;18.00;1.00;;;;;;5075246;28;20127;-60
2023/09/21 02:50:14;;;;;;;6.30;2.28;;;18.00;1.00;;;;;;5074942;28;20079;-60
2023/09/21 02:52:45;;;;;;;6.63;2.40;;;18.00;1.00;;;;;;5075040;28;20432;-60
2023/09/21 02:55:12;;;;;;;6.47;2.30;;;18.00;1.00;;;;;;5074857;28;20047;-60
2023/09/21 02:57:37;;;;;;;5.38;1.80;;;18.00;1.00;;;;;;5074569;28;20267;-60
2023/09/21 03:00:12;;;;;;;6.10;2.38;;;18.10;1.00;;;;;;5074989;28;20044;-60
2023/09/21 03:02:37;;;;;;;6.93;2.33;;;18.10;1.00;;;;;;5074780;28;20052;-60
2023/09/21 03:05:03;;;;;;;5.85;2.35;;;18.00;1.00;;;;;;5074861;28;20070;-60
2023/09/21 03:07:29;;;;;;;6.63;2.13;;;18.00;1.00;;;;;;5073301;28;20056;-61
2023/09/21 03:09:55;;;;;;;6.85;2.10;;;18.00;1.00;;;;;;5074408;28;20055;-60
2023/09/21 03:12:22;;;;;;;6.45;2.30;;;18.10;1.00;;;;;;5074547;28;20147;-60
2023/09/21 03:14:48;;;;;;;5.75;2.05;;;18.00;1.00;;;;;;5074585;28;20047;-60
2023/09/21 03:17:14;;;;;;;5.35;2.08;;;18.00;1.00;;;;;;5074539;28;20044;-61
2023/09/21 03:19:40;;;;;;;6.75;2.40;;;18.10;1.00;;;;;;5073290;28;20048;-60
2023/09/21 03:22:06;;;;;;;6.05;2.30;;;18.10;1.00;;;;;;5074564;28;20044;-60
2023/09/21 03:24:33;;;;;;;6.22;2.53;;;18.10;1.00;;;;;;5073103;28;20100;-60
2023/09/21 03:26:58;;;;;;;5.50;2.22;;;18.10;1.00;;;;;;5074278;28;20079;-60
2023/09/21 03:29:24;;;;;;;6.72;2.22;;;18.10;1.00;;;;;;5074514;28;20516;-60
2023/09/21 03:31:50;;;;;;;5.35;1.90;;;18.20;1.00;;;;;;5074137;28;20051;-61
2023/09/21 03:34:15;;;;;;;7.43;2.40;;;18.10;1.00;;;;;;5072804;28;20033;-60
2023/09/21 03:36:42;;;;;;;6.55;2.35;;;18.20;1.00;;;;;;5074031;28;20123;-60
2023/09/21 03:39:10;;;;;;;5.45;2.35;;;18.10;1.00;;;;;;5072005;28;20070;-60
2023/09/21 03:41:36;;;;;;;5.50;1.90;;;18.10;1.00;;;;;;5074215;28;20041;-61
2023/09/21 03:44:03;;;;;;;6.30;2.03;;;18.10;1.00;;;;;;5074072;28;20055;-60
2023/09/21 03:46:29;;;;;;;7.25;2.15;;;18.10;1.00;;;;;;5073704;28;20041;-59
2023/09/21 03:48:56;;;;;;;5.50;2.17;;;18.20;1.00;;;;;;5073709;28;20037;-60
2023/09/21 03:51:21;;;;;;;6.10;2.08;;;18.20;1.00;;;;;;5073585;28;20076;-60
2023/09/21 03:53:47;;;;;;;7.00;2.15;;;18.20;1.00;;;;;;5073667;28;20071;-60
2023/09/21 03:56:12;;;;;;;6.45;2.10;;;18.20;1.00;;;;;;5072635;28;20098;-60
2023/09/21 03:58:38;;;;;;;7.50;2.42;;;18.20;1.00;;;;;;5073722;28;20044;-60
2023/09/21 04:01:06;;;;;;;7.22;2.13;;;18.20;1.00;;;;;;5073631;28;20044;-58
2023/09/21 04:03:32;;;;;;;5.50;2.20;;;18.20;1.00;;;;;;5072188;28;20481;-60
2023/09/21 04:06:03;;;;;;;6.82;3.05;;;18.30;1.00;;;;;;5073480;28;20037;-60
2023/09/21 04:08:31;;;;;;;5.63;2.03;;;18.30;1.00;;;;;;5073073;28;20060;-60
2023/09/21 04:10:59;;;;;;;7.07;2.65;;;18.30;1.00;;;;;;5073578;28;20401;-60
2023/09/21 04:13:25;;;;;;;6.35;2.17;;;18.30;1.00;;;;;;5073130;28;20523;-60
2023/09/21 04:15:51;;;;;;;4.93;2.00;;;18.20;1.00;;;;;;5073126;28;20080;-60
2023/09/21 04:18:16;;;;;;;6.50;2.22;;;18.20;1.00;;;;;;5073149;28;20040;-60
2023/09/21 04:20:44;;;;;;;5.47;1.85;;;18.20;1.00;;;;;;5073255;28;20041;-60
2023/09/21 04:23:10;;;;;;;6.47;2.20;;;18.20;1.00;;;;;;5072978;28;20374;-60
2023/09/21 04:25:36;;;;;;;5.55;2.13;;;18.20;1.00;;;;;;5073300;28;20102;-60
2023/09/21 04:28:03;;;;;;;5.47;2.03;;;18.10;1.00;;;;;;5072902;28;20097;-60
2023/09/21 04:30:29;;;;;;;7.97;2.15;;;18.10;1.00;;;;;;5072881;28;20045;-60
2023/09/21 04:32:57;;;;;;;6.28;2.25;;;18.10;1.00;;;;;;5072867;28;20037;-60
2023/09/21 04:35:23;;;;;;;5.00;2.00;;;18.00;1.00;;;;;;5072689;28;20072;-60
2023/09/21 04:37:54;;;;;;;6.70;2.30;;;18.00;1.00;;;;;;5072940;28;20033;-60
2023/09/21 04:40:20;;;;;;;6.50;2.15;;;17.90;1.00;;;;;;5072907;28;20047;-61
2023/09/21 04:42:47;;;;;;;7.75;2.15;;;17.90;2.00;;;;;;5072935;28;20484;-59
2023/09/21 04:45:14;;;;;;;5.18;1.73;;;17.90;1.50;;;;;;5072806;28;20044;-60
2023/09/21 04:47:51;;;;;;;8.90;2.33;;;17.90;1.80;;;;;;5072558;28;20064;-60
2023/09/21 04:50:17;;;;;;;5.20;2.15;;;17.90;2.80;;;;;;5072297;28;20047;-60
2023/09/21 04:52:44;;;;;;;5.82;2.10;;;17.80;3.10;;;;;;5072626;28;20190;-60
2023/09/21 04:55:10;;;;;;;6.55;2.25;;;17.80;3.50;;;;;;5072588;28;20391;-60
2023/09/21 04:57:36;;;;;;;5.97;2.03;;;17.90;3.80;;;;;;5072535;28;20040;-60
2023/09/21 05:00:09;;;;;;;5.53;2.00;;;17.80;4.60;;;;;;5072654;28;20045;-60
2023/09/21 05:02:35;;;;;;;7.03;2.03;;;17.80;3.90;;;;;;5072566;28;20036;-61
2023/09/21 05:05:01;;;;;;;7.70;2.30;;;17.80;5.30;;;;;;5072197;28;20047;-61
2023/09/21 05:07:27;;;;;;;5.97;2.10;;;17.80;6.20;;;;;;5072179;28;20056;-60
2023/09/21 05:09:52;;;;;;;6.03;2.10;;;17.80;4.90;;;;;;5071300;28;20045;-60
2023/09/21 05:12:18;;;;;;;6.00;2.20;;;17.80;4.70;;;;;;5072185;28;20568;-60
2023/09/21 05:14:47;;;;;;;5.82;2.20;;;17.80;4.80;;;;;;5072417;28;20036;-61
2023/09/21 05:17:16;;;;;;;6.93;2.17;;;17.80;5.40;;;;;;5072118;28;20044;-60
2023/09/21 05:19:43;;;;;;;7.07;2.33;;;17.80;6.30;;;;;;5072343;28;20109;-60
2023/09/21 05:22:10;;;;;;;5.97;2.25;;;17.80;6.40;;;;;;5070769;28;20044;-60
2023/09/21 05:24:36;;;;;;;5.30;1.90;;;17.80;6.10;;;;;;5071886;28;20032;-60
2023/09/21 05:27:03;;;;;;;5.43;2.05;;;17.90;7.50;;;;;;5072287;28;20084;-60
2023/09/21 05:29:28;;;;;;;6.50;2.22;;;17.80;7.30;;;;;;5072490;28;20086;-60
2023/09/21 05:31:54;;;;;;;4.78;1.80;;;17.80;9.20;;;;;;5072209;28;20044;-60
2023/09/21 05:34:20;;;;;;;4.97;2.00;;;17.80;9.00;;;;;;5072337;28;20033;-60
2023/09/21 05:36:47;;;;;;;5.63;2.00;;;17.80;8.80;;;;;;5072292;28;20051;-60
2023/09/21 05:39:19;;;;;;;6.13;1.80;;;17.80;9.70;;;;;;5072042;28;20045;-60
2023/09/21 05:41:49;;;;;;;6.43;1.92;;;17.80;9.30;;;;;;5071899;28;20049;-59
2023/09/21 05:44:15;;;;;;;6.72;2.35;;;17.80;9.80;;;;;;5071852;28;20123;-60
2023/09/21 05:46:41;;;;;;;6.75;2.30;;;17.80;11.60;;;;;;5072047;28;20080;-60
2023/09/21 05:49:11;;;;;;;7.22;2.40;;;17.80;10.90;;;;;;5071741;28;20087;-60
2023/09/21 05:51:39;;;;;;;6.55;2.17;;;17.80;10.00;;;;;;5071937;28;20044;-60
2023/09/21 05:54:05;;;;;;;5.45;2.22;;;17.80;10.50;;;;;;5071727;28;20040;-60
2023/09/21 05:56:34;;;;;;;6.43;2.22;;;17.90;11.40;;;;;;5071727;28;20441;-59
2023/09/21 05:59:00;;;;;;;5.88;2.10;;;17.90;10.40;;;;;;5071509;28;20047;-60
2023/09/21 06:01:30;;;;;;;7.18;2.00;;;17.90;10.60;;;;;;5071859;28;20041;-60
2023/09/21 06:03:57;;;;;;;5.63;2.10;;;17.90;10.70;;;;;;5075883;28;20080;-60
2023/09/21 06:06:25;;;;;;;9.00;2.92;;;17.90;10.00;;;;;;5075617;28;20040;-60
2023/09/21 06:08:51;;;;;;;4.90;1.90;;;17.90;8.10;;;;;;5075397;28;20114;-60
2023/09/21 06:11:16;;;;;;;5.65;1.90;;;17.90;9.50;;;;;;5075720;28;20040;-60
2023/09/21 06:13:42;;;;;;;5.97;2.15;;;17.90;10.50;;;;;;5075705;28;20110;-59
2023/09/21 06:16:08;;;;;;;6.20;2.28;;;17.90;12.00;;;;;;5075639;28;20538;-60
2023/09/21 06:18:34;;;;;;;6.55;2.30;;;17.90;12.70;;;;;;5075497;28;20493;-59
2023/09/21 06:21:01;;;;;;;6.30;1.95;;;17.90;17.20;;;;;;5075618;28;20095;-60
2023/09/21 06:23:27;;;;;;;6.22;2.30;;;17.80;19.70;;;;;;5074988;28;20048;-59
2023/09/21 06:25:54;;;;;;;5.15;2.00;;;17.80;25.20;;;;;;5075241;28;20036;-60
2023/09/21 06:28:21;;;;;;;5.35;2.00;;;17.70;35.10;;;;;;5075248;28;20044;-60
2023/09/21 06:30:47;;;;;;;7.97;3.00;;;17.60;44.90;;;;;;5075095;28;20481;-60
2023/09/21 06:33:13;;;;;;;6.57;2.40;;;17.50;51.20;;;;;;5073782;28;20531;-60
2023/09/21 06:35:40;;;;;;;6.88;2.35;;;17.50;54.80;;;;;;5075347;28;20097;-60
2023/09/21 06:38:06;;;;;;;5.90;2.30;;;17.50;56.80;;;;;;5075194;28;20047;-60
2023/09/21 06:40:36;;;;;;;6.53;2.47;;;17.50;57.50;;;;;;5074964;28;20040;-60
2023/09/21 06:43:06;;;;;;;5.03;1.80;;;17.40;60.00;;;;;;5073622;28;20186;-60
2023/09/21 06:45:32;;;;;;;5.70;2.13;;;17.40;63.50;;;;;;5075154;28;20123;-60
2023/09/21 06:48:01;;;;;;;6.72;2.60;;;17.30;63.20;;;;;;5074852;28;20574;-60
2023/09/21 06:50:27;;;;;;;6.63;2.33;;;17.30;62.90;;;;;;5074680;28;20051;-60
2023/09/21 06:52:53;;;;;;;7.10;2.30;;;17.30;67.40;;;;;;5074558;28;20045;-59
2023/09/21 06:55:19;;;;;;;6.68;2.40;;;17.30;65.50;;;;;;5074767;28;20032;-60
2023/09/21 06:57:45;;;;;;;7.60;2.42;;;17.30;72.00;;;;;;5074597;28;20043;-60
2023/09/21 07:00:11;;;;;;;6.32;2.33;;;17.20;76.50;;;;;;5074634;28;20238;-60
2023/09/21 07:02:36;;;;;;;6.20;2.20;;;17.20;83.30;;;;;;5074531;28;20044;-60
2023/09/21 07:05:02;;;;;;;5.97;2.30;;;17.20;89.00;;;;;;5072918;28;20124;-59
2023/09/21 07:07:29;;;;;;;6.57;2.65;;;17.10;95.00;;;;;;5074124;28;20114;-60
2023/09/21 07:09:55;;;;;;;7.13;2.58;;;17.00;98.50;;;;;;5074550;28;20130;-60
2023/09/21 07:12:24;;;;;;;8.57;2.83;;;17.00;97.80;;;;;;5074089;28;20495;-60
2023/09/21 07:14:50;;;;;;;6.88;2.60;;;17.00;99.90;;;;;;5072967;28;20094;-59
2023/09/21 07:17:16;;;;;;;7.43;2.45;;;17.00;99.90;;;;;;5072898;28;20045;-60
2023/09/21 07:19:42;;;;;;;7.93;2.58;;;17.00;99.90;;;;;;5074271;28;20032;-59
2023/09/21 07:22:08;;;;;;;4.95;2.17;;;17.00;99.90;;;;;;5074233;28;20423;-59
2023/09/21 07:24:34;;;;;;;6.10;2.55;;;17.10;99.90;;;;;;5074238;28;20105;-60
2023/09/21 07:27:00;;;;;;;5.45;2.20;;;17.10;99.90;;;;;;5073892;28;20044;-59
2023/09/21 07:29:26;;;;;;;8.60;2.80;;;17.00;99.90;;;;;;5073994;28;20036;-59
2023/09/21 07:31:52;;;;;;;5.95;2.60;;;17.00;99.90;;;;;;5073778;28;20094;-59
2023/09/21 07:34:19;;;;;;;5.68;2.50;;;17.00;99.90;;;;;;5073920;28;20029;-59
2023/09/21 07:36:48;;;;;;;9.05;3.55;;;17.00;99.90;;;;;;5073734;28;20090;-60
2023/09/21 07:39:14;;;;;;;5.90;2.80;;;17.00;99.90;;;;;;5073982;28;20423;-58
2023/09/21 07:41:40;;;;;;;5.88;2.47;;;17.00;99.90;;;;;;5072672;28;20040;-60
2023/09/21 07:44:10;;;;;;;6.70;2.70;;;17.00;99.90;;;;;;5074004;28;20040;-59
2023/09/21 07:46:38;;;;;;;5.75;2.72;;;17.00;99.90;;;;;;5073785;28;20076;-59
2023/09/21 07:49:04;;;;;;;6.63;2.80;;;17.00;99.90;;;;;;5073231;28;20119;-60
2023/09/21 07:51:31;;;;;;;6.70;2.83;;;17.00;99.90;;;;;;5073784;28;20127;-59
2023/09/21 07:53:57;;;;;;;5.68;2.75;;;16.90;99.90;;;;;;5073555;28;20045;-59
2023/09/21 07:56:23;;;;;;;6.90;2.75;;;16.90;99.90;;;;;;5073461;28;20032;-59
2023/09/21 07:58:49;;;;;;;5.35;2.50;;;16.90;99.90;;;;;;5073712;28;20080;-59
2023/09/21 08:01:14;;;;;;;7.57;3.10;;;16.90;99.90;;;;;;5072176;28;20072;-60
2023/09/21 08:03:40;;;;;;;5.80;2.58;;;16.90;99.90;;;;;;5073037;28;20072;-60
2023/09/21 08:06:07;;;;;;;6.45;2.70;;;16.90;99.90;;;;;;5072880;28;20049;-59
2023/09/21 08:08:32;;;;;;;7.07;2.70;;;16.90;99.90;;;;;;5072768;28;20095;-60
2023/09/21 08:10:58;;;;;;;9.05;3.00;;;16.90;99.90;;;;;;5072881;28;20072;-60
2023/09/21 08:13:25;;;;;;;7.18;2.47;;;16.90;99.90;;;;;;5072805;28;20044;-59
2023/09/21 08:15:55;;;;;;;5.95;2.90;;;16.90;99.90;;;;;;5073235;28;20658;-59
2023/09/21 08:18:21;;;;;;;7.28;2.80;;;16.80;99.90;;;;;;5073416;28;20040;-59
2023/09/21 08:20:47;;;;;;;5.07;1.95;;;16.70;99.90;;;;;;5072885;28;20128;-59
2023/09/21 08:23:14;;;;;;;3.65;1.60;;;16.10;99.90;;;;;;5073032;28;20047;-59
2023/09/21 08:25:40;;;;;;;5.43;1.58;;;16.10;99.90;;;;;;5072625;28;20388;-59
2023/09/21 08:28:07;;;;;;;3.10;1.23;;;16.10;99.90;;;;;;5071581;28;20120;-59
2023/09/21 08:30:33;;;;;;;3.75;1.13;;;15.60;99.90;;;;;;5073008;28;20041;-59
2023/09/21 08:32:59;;;;;;;2.83;0.93;;;15.30;99.90;;;;;;5072894;28;20070;-59
2023/09/21 08:35:25;;;;;;;4.45;1.20;;;15.00;99.90;;;;;;5072882;28;20078;-59
2023/09/21 08:37:52;;;;;;;3.65;0.85;;;15.00;99.90;;;;;;5072850;28;20087;-59
2023/09/21 08:40:21;;;;;;;4.13;1.05;;;15.10;99.90;;;;;;5072913;28;20532;-59
2023/09/21 08:42:53;;;;;;;2.60;0.90;;;15.00;99.90;;;;;;5072325;28;20550;-59
2023/09/21 08:45:22;;;;;;;1.95;0.70;;;14.90;99.90;;;;;;5071560;28;20040;-59
2023/09/21 08:47:48;;;;;;;2.70;1.10;;;14.90;99.90;;;;;;5072378;28;20044;-59
2023/09/21 08:50:15;;;;;;;3.53;1.05;;;15.10;99.90;;;;;;5072770;28;20482;-59
2023/09/21 08:52:45;;;;;;;4.07;1.00;;;14.90;99.90;;;;;;5072609;28;20080;-59
2023/09/21 08:55:16;;;;;;;3.72;1.20;;;14.90;99.90;;;;;;5072555;28;20113;-59
2023/09/21 08:57:42;;;;;;;3.85;1.30;;;15.00;99.90;;;;;;5071143;28;20036;-59
2023/09/21 09:00:08;;;;;;;4.57;1.10;;;15.00;99.90;;;;;;5072381;28;20163;-59
2023/09/21 09:02:35;;;;;;;3.33;1.00;;;15.00;99.90;;;;;;5072361;28;20049;-59
2023/09/21 09:05:09;;;;;;;3.80;1.08;;;15.10;99.90;;;;;;5071047;28;20057;-59
2023/09/21 09:07:39;;;;;;;3.50;1.25;;;15.10;99.90;;;;;;5072328;28;20060;-59
2023/09/21 09:10:09;;;;;;;2.78;0.93;;;15.10;99.90;;;;;;5072421;28;20051;-59
2023/09/21 09:12:35;;;;;;;3.13;0.90;;;15.10;99.90;;;;;;5072352;28;20365;-59
2023/09/21 09:15:03;;;;;;;3.47;1.10;;;15.00;99.90;;;;;;5071028;28;20046;-59
2023/09/21 09:17:30;;;;;;;3.95;1.10;;;15.00;99.90;;;;;;5072378;28;20068;-58
2023/09/21 09:19:57;;;;;;;3.60;1.00;;;15.10;99.90;;;;;;5072329;28;20032;-59
2023/09/21 09:22:24;;;;;;;4.90;1.20;;;15.20;99.90;;;;;;5072225;28;20036;-59
2023/09/21 09:24:53;;;;;;;4.18;1.48;;;15.10;99.90;;;;;;5072406;28;20071;-59
2023/09/21 09:27:19;;;;;;;4.30;1.30;;;15.00;99.90;;;;;;5071964;28;20029;-60
2023/09/21 09:29:52;;;;;;;3.20;1.00;;;15.00;99.90;;;;;;5071686;28;20071;-58
2023/09/21 09:32:18;;;;;;;5.43;1.50;;;15.10;99.90;;;;;;5071805;28;20044;-59
2023/09/21 09:34:46;;;;;;;5.32;1.42;;;14.90;99.90;;;;;;5070771;28;20079;-59
2023/09/21 09:37:15;;;;;;;3.10;1.02;;;15.00;99.90;;;;;;5070856;28;20064;-59
2023/09/21 09:39:42;;;;;;;2.65;1.00;;;14.80;99.90;;;;;;5071672;28;20464;-59
2023/09/21 09:42:10;;;;;;;4.60;1.38;;;14.70;99.90;;;;;;5071609;28;20040;-59
2023/09/21 09:44:44;;;;;;;4.78;1.08;;;14.60;99.90;;;;;;5071815;28;20449;-59
2023/09/21 09:47:12;;;;;;;4.13;1.10;;;14.80;99.90;;;;;;5053736;28;20044;-59
2023/09/21 09:49:40;;;;;;;3.30;1.00;;;14.70;99.90;;;;;;5071473;28;20049;-59
2023/09/21 09:52:09;;;;;;;3.13;1.10;;;14.50;99.90;;;;;;5071102;28;20087;-59
2023/09/21 09:54:36;;;;;;;4.68;1.25;;;14.60;99.90;;;;;;5070046;28;20397;-59
2023/09/21 09:57:04;;;;;;;3.08;1.00;;;14.60;99.90;;;;;;5071295;28;20045;-59
2023/09/21 09:59:31;;;;;;;3.00;0.85;;;14.50;99.90;;;;;;5071052;28;20401;-59
2023/09/21 10:01:59;;;;;;;4.93;1.00;;;14.70;99.90;;;;;;5070995;28;20087;-59
2023/09/21 10:04:26;;;;;;;3.75;1.00;;;14.80;99.90;;;;;;5069959;28;20510;-59
2023/09/21 10:06:52;;;;;;;4.15;0.93;;;14.80;99.90;;;;;;5071714;28;20174;-59
2023/09/21 10:09:18;;;;;;;2.65;0.95;;;14.70;99.90;;;;;;5071485;28;20139;-59
2023/09/21 10:11:53;;;;;;;2.55;0.80;;;14.60;99.90;;;;;;5071504;28;20044;-59
2023/09/21 10:14:19;;;;;;;3.58;1.10;;;14.70;99.90;;;;;;5071589;28;20044;-59
2023/09/21 10:16:54;;;;;;;4.25;0.90;;;14.80;99.90;;;;;;5071466;28;20040;-59
2023/09/21 10:19:36;;;;;;;3.85;1.20;;;14.90;99.90;;;;;;5071785;28;20632;-59
2023/09/21 10:22:22;;;;;;;3.50;1.10;;;15.00;99.90;;;;;;5071738;28;20052;-59
2023/09/21 10:24:53;;;;;;;2.55;1.00;;;15.20;99.90;;;;;;5071744;28;20502;-59
2023/09/21 10:27:24;;;;;;;2.65;1.00;;;15.20;99.90;;;;;;5071805;28;20051;-59
2023/09/21 10:29:59;;;;;;;3.97;1.20;;;15.30;99.90;;;;;;5071302;28;20117;-59
2023/09/21 10:32:25;;;;;;;3.97;0.90;;;15.40;99.90;;;;;;5071574;28;20719;-59
2023/09/21 10:34:50;;;;;;;3.85;1.00;;;15.50;99.90;;;;;;5071288;28;20119;-59
2023/09/21 10:37:26;;;;;;;3.95;0.95;;;15.50;99.90;;;;;;5071521;28;20185;-59
2023/09/21 10:39:58;;;;;;;3.33;1.25;;;15.50;99.90;;;;;;5070117;28;20045;-59
2023/09/21 10:42:29;;;;;;;2.40;0.90;;;15.50;99.90;;;;;;5070707;28;20491;-46
2023/09/21 10:45:03;;;;;;;3.50;1.00;;;15.60;99.90;;;;;;5071307;28;20049;-45
2023/09/21 10:47:35;;;;;;;7.20;1.10;;;15.70;99.90;;;;;;5071432;28;20059;-44
2023/09/21 10:50:03;;;;;;;4.07;0.90;;;15.70;99.90;;;;;;5074816;28;20048;-45
2023/09/21 10:52:29;;;;;;;3.33;1.02;;;15.70;99.90;;;;;;5074286;28;20098;-45
2023/09/21 10:54:56;;;;;;;3.35;0.90;;;15.70;99.90;;;;;;5074277;28;20048;-44
2023/09/21 10:57:26;;;;;;;3.65;1.20;;;15.70;99.90;;;;;;5074657;28;20040;-45
2023/09/21 10:59:53;;;;;;;2.30;0.80;;;15.80;99.90;;;;;;5073059;28;20476;-46
2023/09/21 11:02:20;;;;;;;2.63;0.90;;;15.60;99.90;;;;;;5074164;28;20048;-47
2023/09/21 11:04:48;;;;;;;2.95;0.80;;;15.80;99.90;;;;;;5074323;28;20392;-45
2023/09/21 11:07:16;;;;;;;1.90;0.80;;;15.80;99.90;;;;;;5073916;28;20048;-45
2023/09/21 11:09:43;;;;;;;2.92;0.90;;;15.90;99.90;;;;;;5074053;28;20607;-47
2023/09/21 11:12:17;;;;;;;3.55;1.13;;;15.90;99.90;;;;;;5074023;28;20042;-46
2023/09/21 11:14:47;;;;;;;3.20;1.00;;;15.90;99.90;;;;;;5074687;28;20097;-45
2023/09/21 11:17:18;;;;;;;2.65;0.93;;;15.90;99.90;;;;;;5073024;28;20045;-45
2023/09/21 11:19:45;;;;;;;2.33;0.90;;;15.90;99.90;;;;;;5074341;28;20055;-45
2023/09/21 11:22:15;;;;;;;5.65;1.30;;;15.90;99.90;;;;;;5074623;28;20123;-45
2023/09/21 11:24:42;;;;;;;2.45;0.80;;;15.80;99.90;;;;;;5074243;28;20047;-47
2023/09/21 11:27:09;;;;;;;2.90;0.90;;;15.70;99.90;;;;;;5074499;28;20133;-45
2023/09/21 11:29:39;;;;;;;2.35;0.80;;;15.70;99.90;;;;;;5074149;28;20040;-49
2023/09/21 11:32:07;;;;;;;3.47;1.00;;;15.70;99.90;;;;;;5073916;28;20080;-45
2023/09/21 11:34:39;;;;;;;3.65;0.75;;;15.80;99.90;;;;;;5074213;28;20040;-46
2023/09/21 11:37:07;;;;;;;2.20;0.90;;;15.80;99.90;;;;;;5074226;28;20040;-45
2023/09/21 11:39:35;;;;;;;3.85;1.13;;;16.00;99.90;;;;;;5074176;28;20040;-45
2023/09/21 11:42:01;;;;;;;2.53;0.90;;;16.10;99.90;;;;;;5073835;28;20040;-45
2023/09/21 11:44:28;;;;;;;2.80;1.00;;;16.10;99.90;;;;;;5073834;28;20127;-45
2023/09/21 11:46:57;;;;;;;4.97;1.17;;;16.10;99.90;;;;;;5073571;28;20536;-45
2023/09/21 11:49:37;;;;;;;2.08;0.73;;;16.10;99.90;;;;;;5073165;28;20044;-45
2023/09/21 11:52:03;;;;;;;3.35;1.25;;;16.10;99.90;;;;;;5073249;28;20127;-45
2023/09/21 11:54:30;;;;;;;3.60;1.10;;;16.10;99.90;;;;;;5071762;28;20396;-49
2023/09/21 11:56:56;;;;;;;3.28;1.02;;;16.00;99.90;;;;;;5073624;28;20036;-49
2023/09/21 11:59:22;;;;;;;3.83;1.20;;;15.90;99.90;;;;;;5073241;28;20059;-48
2023/09/21 12:01:49;;;;;;;3.75;1.00;;;15.80;99.90;;;;;;5072220;28;20072;-48
2023/09/21 12:04:17;;;;;;;4.20;1.40;;;15.70;99.90;;;;;;5073743;28;20045;-48
2023/09/21 12:06:44;;;;;;;3.30;1.10;;;15.60;99.90;;;;;;5073406;28;20373;-48
2023/09/21 12:09:12;;;;;;;4.40;1.48;;;15.50;99.90;;;;;;5073157;28;20523;-46
2023/09/21 12:11:39;;;;;;;4.13;1.48;;;15.60;99.90;;;;;;5073504;28;20048;-46
2023/09/21 12:14:04;;;;;;;3.78;1.35;;;15.60;99.90;;;;;;5073212;28;20032;-45
2023/09/21 12:16:35;;;;;;;3.63;1.23;;;15.60;99.90;;;;;;5073210;28;20032;-45
2023/09/21 12:19:00;;;;;;;2.97;1.10;;;15.60;99.90;;;;;;5071904;28;20053;-47
2023/09/21 12:21:26;;;;;;;4.47;1.60;;;15.80;99.90;;;;;;5073038;28;20047;-46
2023/09/21 12:23:52;;;;;;;3.40;1.35;;;15.80;99.90;;;;;;5073013;28;20044;-46
2023/09/21 12:26:18;;;;;;;3.17;1.13;;;16.00;99.90;;;;;;5072839;28;20048;-46
2023/09/21 12:28:44;;;;;;;3.58;1.15;;;16.00;99.90;;;;;;5072884;28;20048;-50
2023/09/21 12:31:10;;;;;;;3.17;0.90;;;16.00;99.90;;;;;;5071537;28;20101;-46
2023/09/21 12:33:36;;;;;;;3.70;0.90;;;15.90;99.90;;;;;;5072941;28;20086;-47
2023/09/21 12:36:05;;;;;;;2.38;0.90;;;16.10;99.90;;;;;;5072993;28;20439;-46
2023/09/21 12:38:32;;;;;;;3.63;1.00;;;16.00;99.90;;;;;;5072921;28;20470;-46
2023/09/21 12:40:59;;;;;;;1.83;0.80;;;15.80;99.90;;;;;;5072973;28;20037;-46
2023/09/21 12:43:25;;;;;;;2.33;0.80;;;15.80;99.90;;;;;;5072942;28;20116;-45
2023/09/21 12:45:51;;;;;;;2.17;0.90;;;15.80;99.90;;;;;;5072865;28;20140;-47
2023/09/21 12:48:17;;;;;;;1.90;0.82;;;15.90;99.90;;;;;;5072865;28;20036;-47
2023/09/21 12:50:42;;;;;;;2.22;0.80;;;16.00;99.90;;;;;;5072733;28;20381;-45
2023/09/21 12:53:10;;;;;;;2.67;1.13;;;16.20;99.90;;;;;;5072687;28;20093;-45